.
WxDataArchive / Data Records for 2015-05-21
2015-05-20 May 2015 2015-05-22

Data Records for Thursday, 21 May 2015

Time	Temp	Chill	HIndex	Humid	Dewpt	 Wind 	HiWind	WindDir	Rain 	Barom
-----	----	-----	------	-----	-----	------	------	-------	-----	-----
00:00	46.7	46.7	46.7	88	43.3	0	0	---	0.00	30.071 
00:05	46.7	46.7	46.7	88	43.3	0	0	---	0.00	30.071 
00:10	46.7	46.7	46.7	89	43.6	0	0	---	0.00	30.071 
00:15	46.7	46.7	46.7	89	43.6	0	0	---	0.00	30.064 
00:20	46.5	46.5	46.5	89	43.4	0	0	---	0.00	30.064 
00:25	46.4	46.4	46.4	89	43.3	0	0	---	0.00	30.064 
00:30	46.1	46.1	46.1	89	43.0	0	0	---	0.00	30.068 
00:35	46.0	46.0	46.0	88	42.6	0	0	---	0.00	30.068 
00:40	46.0	46.0	46.0	88	42.6	0	0	---	0.00	30.068 
00:45	45.8	45.8	45.8	88	42.5	0	0	---	0.00	30.059 
00:50	45.8	45.8	45.8	88	42.5	0	0	---	0.00	30.059 
00:55	45.7	45.7	45.7	88	42.4	0	0	---	0.00	30.059 
01:00	45.8	45.8	45.8	88	42.5	0	0	---	0.00	30.057 
01:05	45.8	45.8	45.8	87	42.2	0	0	---	0.00	30.057 
01:10	45.8	45.8	45.8	87	42.2	0	0	---	0.00	30.057 
01:15	45.8	45.8	45.8	87	42.2	0	0	---	0.00	30.054 
01:20	45.8	45.8	45.8	87	42.2	0	0	---	0.00	30.054 
01:25	45.8	45.8	45.8	87	42.2	0	0	---	0.00	30.054 
01:30	46.0	46.0	46.0	86	42.0	0	1	90	0.00	30.046 
01:35	46.0	46.0	46.0	85	41.7	0	0	---	0.00	30.046 
01:40	46.0	46.0	46.0	85	41.7	0	0	---	0.00	30.046 
01:45	46.0	46.0	46.0	85	41.7	0	0	---	0.00	30.046 
01:50	46.0	46.0	46.0	85	41.7	0	0	---	0.00	30.046 
01:55	46.0	46.0	46.0	85	41.7	0	0	---	0.00	30.046 
02:00	45.8	45.8	45.8	85	41.6	0	0	---	0.00	30.047 
02:05	45.8	45.8	45.8	84	41.2	0	0	---	0.00	30.047 
02:10	45.8	45.8	45.8	84	41.2	0	0	---	0.00	30.047 
02:15	45.8	45.8	45.8	84	41.2	0	0	---	0.00	30.040 
02:20	46.0	46.0	46.0	85	41.7	0	0	---	0.00	30.040 
02:25	46.0	46.0	46.0	85	41.7	0	0	---	0.00	30.040 
02:30	46.0	46.0	46.0	85	41.7	0	0	---	0.00	30.036 
02:35	46.1	46.1	46.1	86	42.1	0	0	---	0.00	30.036 
02:40	46.1	46.1	46.1	86	42.1	0	0	---	0.00	30.036 
02:45	46.1	46.1	46.1	86	42.1	0	0	---	0.00	30.032 
02:50	46.2	46.2	46.2	86	42.2	0	0	---	0.00	30.032 
02:55	46.2	46.2	46.2	86	42.2	0	1	90	0.00	30.032 
03:00	46.2	46.2	46.2	86	42.2	0	0	---	0.00	30.024 
03:05	46.4	46.4	46.4	86	42.4	0	1	90	0.00	30.024 
03:10	46.4	46.4	46.4	86	42.4	0	1	90	0.00	30.024 
03:15	46.4	46.4	46.4	85	42.1	0	1	90	0.00	30.024 
03:20	46.5	46.5	46.5	86	42.5	0	1	90	0.00	30.024 
03:25	46.5	46.5	46.5	86	42.5	0	1	90	0.00	30.024 
03:30	46.4	46.4	46.4	86	42.4	0	1	90	0.00	30.023 
03:35	46.4	46.4	46.4	86	42.4	0	2	90	0.00	30.023 
03:40	46.4	46.4	46.4	86	42.4	0	1	90	0.00	30.023 
03:45	46.4	46.4	46.4	86	42.4	0	3	90	0.00	30.023 
03:50	46.5	46.5	46.5	86	42.5	0	2	90	0.00	30.023 
03:55	46.5	46.5	46.5	86	42.5	1	3	90	0.00	30.023 
04:00	46.5	46.5	46.5	86	42.5	0	2	90	0.00	30.023 
04:05	46.5	46.5	46.5	86	42.5	0	2	90	0.00	30.023 
04:10	46.5	46.5	46.5	86	42.5	0	1	90	0.00	30.023 
04:15	46.5	46.5	46.5	86	42.5	0	1	90	0.00	30.022 
04:20	46.5	46.5	46.5	86	42.5	0	3	90	0.00	30.022 
04:25	46.5	46.5	46.5	86	42.5	0	1	90	0.00	30.022 
04:30	46.7	46.7	46.7	86	42.7	0	1	90	0.00	30.022 
04:35	46.7	46.7	46.7	86	42.7	0	1	90	0.00	30.022 
04:40	46.7	46.7	46.7	86	42.7	0	1	90	0.00	30.022 
04:45	46.7	46.7	46.7	86	42.7	0	1	90	0.00	30.022 
04:50	46.7	46.7	46.7	86	42.7	0	1	90	0.00	30.022 
04:55	46.7	46.7	46.7	86	42.7	0	1	90	0.00	30.022 
05:00	46.8	46.8	46.8	87	43.1	0	0	---	0.00	30.021 
05:05	46.8	46.8	46.8	87	43.1	0	1	90	0.00	30.021 
05:10	46.8	46.8	46.8	87	43.1	0	1	90	0.00	30.021 
05:15	46.8	46.8	46.8	87	43.1	0	2	90	0.00	30.021 
05:20	46.8	46.8	46.8	87	43.1	0	2	90	0.00	30.021 
05:25	46.8	46.8	46.8	87	43.1	0	2	90	0.00	30.021 
05:30	47.0	47.0	47.0	87	43.3	0	2	90	0.00	30.018 
05:35	47.0	47.0	47.0	87	43.3	0	1	90	0.00	30.018 
05:40	47.0	47.0	47.0	88	43.6	0	2	90	0.00	30.018 
05:45	47.0	47.0	47.0	88	43.6	0	1	90	0.00	30.017 
05:50	47.0	47.0	47.0	88	43.6	0	0	---	0.00	30.017 
05:55	47.0	47.0	47.0	88	43.6	0	1	90	0.00	30.017 
06:00	47.0	47.0	47.0	88	43.6	0	1	90	0.00	30.017 
06:05	47.0	47.0	47.0	89	43.9	0	1	90	0.00	30.017 
06:10	47.0	47.0	47.0	89	43.9	0	1	90	0.00	30.017 
06:15	47.0	47.0	47.0	89	43.9	0	0	---	0.00	30.019 
06:20	47.0	47.0	47.0	89	43.9	0	0	---	0.00	30.019 
06:25	47.0	47.0	47.0	89	43.9	0	0	---	0.00	30.019 
06:30	47.0	47.0	47.0	89	43.9	0	0	---	0.00	30.021 
06:35	47.0	47.0	47.0	89	43.9	0	0	---	0.00	30.021 
06:40	47.0	47.0	47.0	89	43.9	0	1	90	0.00	30.021 
06:45	46.8	46.8	46.8	89	43.7	0	1	90	0.00	30.020 
06:50	46.8	46.8	46.8	89	43.7	0	2	90	0.00	30.020 
06:55	46.8	46.8	46.8	88	43.4	0	2	90	0.00	30.020 
07:00	46.8	46.8	46.8	88	43.4	0	2	90	0.00	30.022 
07:05	46.8	46.8	46.8	88	43.4	0	0	---	0.00	30.022 
07:10	46.8	46.8	46.8	88	43.4	0	1	90	0.00	30.022 
07:15	46.7	46.7	46.7	88	43.3	0	3	90	0.00	30.023 
07:20	46.7	46.7	46.7	88	43.3	0	2	90	0.00	30.023 
07:25	46.8	46.8	46.8	88	43.4	0	2	90	0.00	30.023 
07:30	46.8	46.8	46.8	87	43.1	0	1	90	0.00	30.029 
07:35	46.8	46.8	46.8	87	43.1	0	1	90	0.00	30.029 
07:40	46.8	46.8	46.8	86	42.8	0	1	90	0.00	30.029 
07:45	47.0	47.0	47.0	86	43.0	0	1	90	0.00	30.036 
07:50	47.1	47.1	47.1	85	42.8	0	3	90	0.00	30.036 
07:55	47.1	47.1	47.1	84	42.5	0	2	90	0.00	30.036 
08:00	47.1	47.1	47.1	83	42.2	0	3	90	0.00	30.038 
08:05	47.4	47.4	47.4	82	42.2	0	0	---	0.00	30.038 
08:10	47.6	47.6	47.6	81	42.1	0	2	90	0.00	30.038 
08:15	47.7	47.7	47.7	81	42.2	0	2	90	0.00	30.044 
08:20	47.9	47.9	47.9	79	41.7	0	2	90	0.00	30.044 
08:25	48.2	48.2	48.2	78	41.7	0	1	90	0.00	30.044 
08:30	48.2	48.2	48.2	76	41.0	1	2	90	0.00	30.049 
08:35	48.2	48.2	48.2	75	40.7	0	2	90	0.00	30.049 
08:40	48.3	48.3	48.3	73	40.1	0	3	90	0.00	30.049 
08:45	48.3	48.3	48.3	72	39.7	0	3	90	0.00	30.052 
08:50	48.5	48.5	48.5	73	40.2	0	1	90	0.00	30.052 
08:55	48.6	48.6	48.6	71	39.6	1	3	90	0.00	30.052 
09:00	48.5	48.5	48.5	71	39.5	1	2	90	0.00	30.054 
09:05	48.6	48.6	48.6	71	39.6	0	1	90	0.00	30.054 
09:10	48.8	48.8	48.8	72	40.2	0	1	90	0.00	30.054 
09:15	48.8	48.8	48.8	70	39.5	1	4	90	0.00	30.055 
09:20	48.8	48.8	48.8	71	39.8	0	2	90	0.00	30.055 
09:25	48.8	48.8	48.8	70	39.5	1	3	90	0.00	30.055 
09:30	48.8	48.8	48.8	70	39.5	0	2	90	0.00	30.057 
09:35	48.8	48.8	48.8	70	39.5	0	3	90	0.00	30.057 
09:40	48.9	48.9	48.9	71	39.9	0	2	90	0.00	30.057 
09:45	48.9	48.9	48.9	71	39.9	1	3	90	0.00	30.057 
09:50	48.9	48.9	48.9	69	39.2	1	3	90	0.00	30.057 
09:55	48.8	48.8	48.8	63	36.8	1	3	90	0.00	30.057 
10:00	48.6	48.6	48.6	59	34.9	1	4	90	0.00	30.058 
10:05	48.6	48.6	48.6	57	34.1	1	5	0	0.00	30.058 
10:10	48.6	48.6	48.6	58	34.5	0	1	0	0.00	30.058 
10:15	48.9	48.9	48.9	62	36.5	0	1	0	0.00	30.057 
10:20	49.1	49.1	49.1	65	37.8	0	1	0	0.00	30.057 
10:25	49.1	49.1	49.1	67	38.6	0	1	0	0.00	30.057 
10:30	49.1	49.1	49.1	67	38.6	0	1	0	0.00	30.057 
10:35	49.1	49.1	49.1	66	38.2	0	1	0	0.00	30.057 
10:40	48.9	48.9	48.9	62	36.5	1	2	0	0.00	30.057 
10:45	48.9	48.9	48.9	60	35.6	1	3	338	0.00	30.055 
10:50	48.9	48.9	48.9	60	35.6	1	3	315	0.00	30.055 
10:55	49.1	49.1	49.1	58	35.0	1	3	315	0.00	30.055 
11:00	49.2	49.2	49.2	59	35.5	0	3	315	0.00	30.054 
11:05	49.4	49.4	49.4	59	35.7	0	3	315	0.00	30.054 
11:10	49.6	49.6	49.6	60	36.3	0	1	315	0.00	30.054 
11:15	49.9	49.9	49.9	59	36.1	0	2	315	0.00	30.056 
11:20	50.1	50.1	50.1	59	36.3	1	3	315	0.00	30.056 
11:25	50.4	50.4	50.4	60	37.0	1	2	315	0.00	30.056 
11:30	50.5	50.5	50.5	59	36.7	0	2	315	0.00	30.055 
11:35	50.7	50.7	50.7	59	36.9	1	3	315	0.00	30.055 
11:40	50.8	50.8	50.8	58	36.6	1	4	292	0.00	30.055 
11:45	50.7	50.7	50.7	58	36.5	1	4	292	0.00	30.055 
11:50	50.8	50.8	50.8	59	37.0	1	3	292	0.00	30.055 
11:55	51.1	51.1	51.1	61	38.1	1	3	292	0.00	30.055 
12:00	51.1	51.1	51.1	58	36.8	2	4	292	0.00	30.055 
12:05	51.4	51.4	51.4	59	37.6	1	3	292	0.00	30.055 
12:10	51.7	51.7	51.7	60	38.3	1	5	292	0.00	30.055 
12:15	51.9	51.9	51.9	59	38.0	1	4	270	0.00	30.054 
12:20	51.9	51.9	51.9	59	38.0	1	4	270	0.00	30.054 
12:25	51.9	51.9	51.9	58	37.6	2	4	270	0.00	30.054 
12:30	51.7	51.7	51.7	59	37.8	2	4	270	0.00	30.049 
12:35	51.7	51.7	51.7	59	37.8	1	3	270	0.00	30.049 
12:40	52.0	52.0	52.0	60	38.5	1	3	270	0.00	30.049 
12:45	52.3	52.3	52.3	59	38.4	2	4	270	0.00	30.044 
12:50	52.5	52.5	52.5	59	38.6	2	4	270	0.00	30.044 
12:55	53.1	53.1	53.1	59	39.2	1	5	270	0.00	30.044 
13:00	53.3	53.3	53.3	58	38.9	2	4	292	0.00	30.041 
13:05	53.6	53.6	53.6	58	39.2	1	2	292	0.00	30.041 
13:10	53.5	53.5	53.5	61	40.4	3	5	315	0.00	30.041 
13:15	52.9	52.9	52.9	58	38.5	3	6	292	0.00	30.041 
13:20	52.9	52.9	52.9	59	39.0	2	4	292	0.00	30.041 
13:25	53.1	53.1	53.1	61	40.0	1	4	292	0.00	30.041 
13:30	53.5	53.5	53.5	61	40.4	1	3	292	0.00	30.036 
13:35	53.8	53.8	53.8	60	40.2	2	4	292	0.00	30.036 
13:40	53.9	53.9	53.9	59	39.9	3	6	270	0.00	30.036 
13:45	53.9	53.9	53.9	59	39.9	3	5	270	0.00	30.032 
13:50	54.2	54.2	54.2	58	39.7	2	4	270	0.00	30.032 
13:55	54.2	54.2	54.2	58	39.7	2	6	270	0.00	30.032 
14:00	54.4	54.4	54.4	59	40.4	2	6	270	0.00	30.029 
14:05	54.5	54.5	54.5	58	40.0	2	5	292	0.00	30.029 
14:10	55.0	55.0	55.0	58	40.5	2	4	315	0.00	30.029 
14:15	55.1	55.1	55.1	58	40.6	2	6	270	0.00	30.028 
14:20	55.3	55.3	55.3	57	40.3	2	6	315	0.00	30.028 
14:25	55.4	55.4	55.4	58	40.9	1	4	338	0.00	30.028 
14:30	55.6	55.6	55.6	57	40.6	1	5	292	0.00	30.021 
14:35	55.7	55.7	55.7	58	41.2	1	3	292	0.00	30.021 
14:40	55.9	55.9	55.9	56	40.4	2	5	315	0.00	30.021 
14:45	55.9	55.9	55.9	55	40.0	2	4	315	0.00	30.021 
14:50	55.6	55.6	55.6	55	39.7	2	5	270	0.00	30.021 
14:55	55.6	55.6	55.6	55	39.7	1	4	270	0.00	30.021 
15:00	55.9	55.9	55.9	54	39.5	1	4	270	0.00	30.022 
15:05	56.3	56.3	56.3	53	39.4	2	4	270	0.00	30.022 
15:10	56.5	56.5	56.5	52	39.1	1	4	270	0.00	30.022 
15:15	56.6	56.6	56.6	51	38.7	1	4	270	0.00	30.019 
15:20	56.7	56.7	56.7	50	38.3	1	4	270	0.00	30.019 
15:25	57.0	57.0	57.0	51	39.1	0	1	270	0.00	30.019 
15:30	57.3	57.3	57.3	50	38.8	1	4	270	0.00	30.017 
15:35	57.5	57.5	57.5	50	39.0	1	4	270	0.00	30.017 
15:40	58.0	58.0	58.0	51	40.0	1	3	270	0.00	30.017 
15:45	58.4	58.4	58.4	49	39.3	1	3	270	0.00	30.018 
15:50	58.7	58.7	58.7	47	38.5	2	4	270	0.00	30.018 
15:55	59.2	59.2	59.2	48	39.5	2	5	270	0.00	30.018 
16:00	59.6	59.6	59.6	48	39.9	1	4	270	0.00	30.018 
16:05	59.9	59.9	59.9	46	39.1	2	4	270	0.00	30.018 
16:10	60.1	60.1	60.1	48	40.3	1	4	270	0.00	30.018 
16:15	60.4	60.4	60.4	48	40.6	2	4	270	0.00	30.020 
16:20	60.2	60.2	60.2	46	39.3	3	7	292	0.00	30.020 
16:25	60.1	60.1	60.1	49	40.9	1	4	292	0.00	30.020 
16:30	60.4	60.4	60.4	44	38.4	3	5	292	0.00	30.021 
16:35	60.5	60.5	60.5	45	39.1	2	5	292	0.00	30.021 
16:40	60.1	60.1	60.1	43	37.5	2	7	270	0.00	30.021 
16:45	59.8	59.8	59.8	46	39.0	1	6	338	0.00	30.018 
16:50	60.5	60.5	60.5	45	39.1	2	6	315	0.00	30.018 
16:55	60.7	60.7	60.7	46	39.8	2	5	338	0.00	30.018 
17:00	61.3	61.3	61.3	46	40.3	2	4	270	0.00	30.015 
17:05	61.5	61.5	61.5	44	39.4	2	6	270	0.00	30.015 
17:10	61.8	61.8	61.8	44	39.7	2	6	270	0.00	30.015 
17:15	61.5	61.5	61.5	43	38.8	3	6	270	0.00	30.012 
17:20	61.8	61.8	61.8	45	40.2	1	4	270	0.00	30.012 
17:25	62.3	62.3	62.3	45	40.7	1	5	270	0.00	30.012 
17:30	62.4	62.4	62.4	43	39.6	2	6	270	0.00	30.008 
17:35	62.4	62.4	62.4	44	40.2	1	4	270	0.00	30.008 
17:40	62.7	62.7	62.7	44	40.5	1	3	292	0.00	30.008 
17:45	62.4	62.4	62.4	43	39.6	3	6	292	0.00	30.002 
17:50	62.3	62.3	62.3	43	39.5	2	5	270	0.00	30.002 
17:55	62.0	62.0	62.0	42	38.6	3	6	292	0.00	30.002 
18:00	61.8	61.8	61.8	43	39.1	2	5	292	0.00	30.001 
18:05	62.0	62.0	62.0	43	39.2	2	5	292	0.00	30.001 
18:10	62.1	62.1	62.1	42	38.7	2	7	270	0.00	30.001 
18:15	62.3	62.3	62.3	43	39.5	2	5	270	0.00	30.000 
18:20	62.1	62.1	62.1	43	39.3	2	5	270	0.00	30.000 
18:25	62.1	62.1	62.1	42	38.7	1	4	270	0.00	30.000 
18:30	62.1	62.1	62.1	41	38.1	2	5	270	0.00	29.998 
18:35	62.0	62.0	62.0	40	37.4	2	4	270	0.00	29.998 
18:40	61.8	61.8	61.8	40	37.2	2	5	270	0.00	29.998 
18:45	61.8	61.8	61.8	41	37.8	2	6	270	0.00	29.997 
18:50	61.8	61.8	61.8	41	37.8	3	5	270	0.00	29.997 
18:55	61.8	61.8	61.8	41	37.8	3	6	270	0.00	29.997 
19:00	61.6	61.6	61.6	41	37.7	3	5	270	0.00	29.996 
19:05	61.5	61.5	61.5	42	38.2	1	4	270	0.00	29.996 
19:10	61.6	61.6	61.6	41	37.7	2	6	270	0.00	29.996 
19:15	61.8	61.8	61.8	40	37.2	2	5	270	0.00	29.997 
19:20	62.0	62.0	62.0	40	37.4	2	5	270	0.00	29.997 
19:25	61.8	61.8	61.8	36	34.6	3	6	270	0.00	29.997 
19:30	61.6	61.6	61.6	35	33.7	3	6	270	0.00	29.998 
19:35	61.6	61.6	61.6	35	33.7	2	5	270	0.00	29.998 
19:40	61.6	61.6	61.6	34	33.0	2	4	270	0.00	29.998 
19:45	61.6	61.6	61.6	35	33.7	2	4	270	0.00	30.000 
19:50	61.6	61.6	61.6	34	33.0	2	4	270	0.00	30.000 
19:55	61.5	61.5	61.5	32	31.4	2	5	270	0.00	30.000 
20:00	61.2	61.2	61.2	30	29.5	2	5	270	0.00	30.001 
20:05	61.0	61.0	61.0	29	28.5	2	5	292	0.00	30.001 
20:10	60.9	60.9	60.9	29	28.4	2	3	270	0.00	30.001 
20:15	60.9	60.9	60.9	31	30.1	1	3	270	0.00	29.999 
20:20	60.5	60.5	60.5	31	29.7	1	3	270	0.00	29.999 
20:25	60.4	60.4	60.4	32	30.4	0	2	270	0.00	29.999 
20:30	60.1	60.1	60.1	34	31.6	0	1	270	0.00	30.001 
20:35	59.8	59.8	59.8	35	32.1	0	1	270	0.00	30.001 
20:40	59.3	59.3	59.3	36	32.4	0	1	270	0.00	30.001 
20:45	58.9	58.9	58.9	37	32.7	0	0	---	0.00	30.004 
20:50	58.6	58.6	58.6	38	33.1	0	0	---	0.00	30.004 
20:55	58.0	58.0	58.0	40	33.8	0	0	---	0.00	30.004 
21:00	57.5	57.5	57.5	40	33.4	0	0	---	0.00	30.008 
21:05	57.2	57.2	57.2	42	34.3	0	0	---	0.00	30.008 
21:10	56.7	56.7	56.7	42	33.9	0	0	---	0.00	30.008 
21:15	56.3	56.3	56.3	43	34.1	0	0	---	0.00	30.011 
21:20	56.0	56.0	56.0	43	33.8	0	0	---	0.00	30.011 
21:25	55.7	55.7	55.7	44	34.1	0	0	---	0.00	30.011 
21:30	55.3	55.3	55.3	45	34.3	0	0	---	0.00	30.013 
21:35	55.0	55.0	55.0	46	34.6	0	0	---	0.00	30.013 
21:40	54.7	54.7	54.7	46	34.3	0	0	---	0.00	30.013 
21:45	54.4	54.4	54.4	47	34.6	0	0	---	0.00	30.019 
21:50	53.9	53.9	53.9	48	34.7	0	0	---	0.00	30.019 
21:55	53.6	53.6	53.6	49	34.9	0	0	---	0.00	30.019 
22:00	53.5	53.5	53.5	50	35.3	0	0	---	0.00	30.021 
22:05	53.3	53.3	53.3	51	35.6	0	0	---	0.00	30.021 
22:10	53.1	53.1	53.1	52	35.9	0	0	---	0.00	30.021 
22:15	52.9	52.9	52.9	51	35.3	0	0	---	0.00	30.021 
22:20	52.8	52.8	52.8	52	35.7	0	0	---	0.00	30.021 
22:25	52.6	52.6	52.6	54	36.4	0	0	---	0.00	30.021 
22:30	52.5	52.5	52.5	54	36.3	0	0	---	0.00	30.021 
22:35	52.3	52.3	52.3	55	36.6	0	0	---	0.00	30.021 
22:40	52.2	52.2	52.2	55	36.5	0	0	---	0.00	30.021 
22:45	52.0	52.0	52.0	55	36.3	0	0	---	0.00	30.024 
22:50	52.0	52.0	52.0	55	36.3	0	0	---	0.00	30.024 
22:55	52.0	52.0	52.0	56	36.8	0	0	---	0.00	30.024 
23:00	52.0	52.0	52.0	56	36.8	0	0	---	0.00	30.027 
23:05	51.9	51.9	51.9	57	37.1	0	0	---	0.00	30.027 
23:10	51.7	51.7	51.7	57	37.0	0	0	---	0.00	30.027 
23:15	51.6	51.6	51.6	58	37.3	0	0	---	0.00	30.030 
23:20	51.4	51.4	51.4	59	37.6	0	0	---	0.00	30.030 
23:25	51.3	51.3	51.3	60	37.9	0	0	---	0.00	30.030 
23:30	51.1	51.1	51.1	60	37.7	0	0	---	0.00	30.028 
23:35	51.0	51.0	51.0	61	38.0	0	0	---	0.00	30.028 
23:40	51.0	51.0	51.0	62	38.4	0	0	---	0.00	30.028 
23:45	50.8	50.8	50.8	62	38.3	0	0	---	0.00	30.028 
23:50	50.7	50.7	50.7	62	38.2	0	0	---	0.00	30.028 
23:55	50.7	50.7	50.7	63	38.6	0	0	---	0.00	30.028 

CoCoRaHS
IN-AL-39
A2 Web Hosting
Creative Commons License
GoDaddy
search engine by freefind advanced

loaded 2018-11-17 18:15:53 • last modified 2010-11-18 10:43:29
Privacy PolicyDisclaimer
• wx.awcolley.com is powered by PmWiki v.2002016 •
• all content (unless otherwise noted) © 2018 A W Colley